sensor_id;sensor_type;location;lat;lon;timestamp;temperature;humidity
21592;DHT22;10958;50.892;3.992;2022-09-29T00:00:36;10.80;99.90
21592;DHT22;10958;50.892;3.992;2022-09-29T00:03:02;10.80;99.90
21592;DHT22;10958;50.892;3.992;2022-09-29T00:05:28;10.80;99.90
21592;DHT22;10958;50.892;3.992;2022-09-29T00:07:54;10.50;99.90
21592;DHT22;10958;50.892;3.992;2022-09-29T00:10:20;10.50;99.90
21592;DHT22;10958;50.892;3.992;2022-09-29T00:12:46;10.40;99.90
21592;DHT22;10958;50.892;3.992;2022-09-29T00:15:16;10.20;99.90
21592;DHT22;10958;50.892;3.992;2022-09-29T00:17:42;10.20;99.90
21592;DHT22;10958;50.892;3.992;2022-09-29T00:20:08;10.40;99.90
21592;DHT22;10958;50.892;3.992;2022-09-29T00:22:34;10.40;99.90
21592;DHT22;10958;50.892;3.992;2022-09-29T00:24:59;10.60;99.90
21592;DHT22;10958;50.892;3.992;2022-09-29T00:27:25;10.70;99.90
21592;DHT22;10958;50.892;3.992;2022-09-29T00:29:51;10.80;99.90
21592;DHT22;10958;50.892;3.992;2022-09-29T00:32:17;10.80;99.90
21592;DHT22;10958;50.892;3.992;2022-09-29T00:34:43;10.90;99.90
21592;DHT22;10958;50.892;3.992;2022-09-29T00:37:09;10.70;99.90
21592;DHT22;10958;50.892;3.992;2022-09-29T00:39:34;10.80;99.90
21592;DHT22;10958;50.892;3.992;2022-09-29T00:42:03;10.80;99.90
21592;DHT22;10958;50.892;3.992;2022-09-29T00:45:11;10.80;99.90
21592;DHT22;10958;50.892;3.992;2022-09-29T00:47:40;10.70;99.90
21592;DHT22;10958;50.892;3.992;2022-09-29T00:50:17;10.60;99.90
21592;DHT22;10958;50.892;3.992;2022-09-29T00:52:50;10.60;99.90
21592;DHT22;10958;50.892;3.992;2022-09-29T00:55:32;10.80;99.90
21592;DHT22;10958;50.892;3.992;2022-09-29T01:00:26;10.80;99.90
21592;DHT22;10958;50.892;3.992;2022-09-29T01:03:04;10.80;99.90
21592;DHT22;10958;50.892;3.992;2022-09-29T01:05:36;10.80;99.90
21592;DHT22;10958;50.892;3.992;2022-09-29T01:10:59;10.40;99.90
21592;DHT22;10958;50.892;3.992;2022-09-29T01:13:26;9.60;99.90
21592;DHT22;10958;50.892;3.992;2022-09-29T01:15:53;9.10;99.90
21592;DHT22;10958;50.892;3.992;2022-09-29T01:18:19;9.00;99.90
21592;DHT22;10958;50.892;3.992;2022-09-29T01:39:53;10.10;99.90
21592;DHT22;10958;50.892;3.992;2022-09-29T01:42:29;10.20;99.90
21592;DHT22;10958;50.892;3.992;2022-09-29T01:45:11;10.10;99.90
21592;DHT22;10958;50.892;3.992;2022-09-29T01:47:45;10.10;99.90
21592;DHT22;10958;50.892;3.992;2022-09-29T01:50:23;9.80;99.90
21592;DHT22;10958;50.892;3.992;2022-09-29T01:52:55;9.70;99.90
21592;DHT22;10958;50.892;3.992;2022-09-29T01:55:25;9.70;99.90
21592;DHT22;10958;50.892;3.992;2022-09-29T01:58:01;9.70;99.90
21592;DHT22;10958;50.892;3.992;2022-09-29T02:00:31;9.90;99.90
21592;DHT22;10958;50.892;3.992;2022-09-29T02:03:10;10.00;99.90
21592;DHT22;10958;50.892;3.992;2022-09-29T02:05:51;10.10;99.90
21592;DHT22;10958;50.892;3.992;2022-09-29T02:08:36;10.10;99.90
21592;DHT22;10958;50.892;3.992;2022-09-29T02:11:08;10.10;99.90
21592;DHT22;10958;50.892;3.992;2022-09-29T02:13:59;10.00;99.90
21592;DHT22;10958;50.892;3.992;2022-09-29T02:16:31;9.90;99.90
21592;DHT22;10958;50.892;3.992;2022-09-29T02:19:07;10.00;99.90
21592;DHT22;10958;50.892;3.992;2022-09-29T02:21:37;10.00;99.90
21592;DHT22;10958;50.892;3.992;2022-09-29T02:24:03;10.10;99.90
21592;DHT22;10958;50.892;3.992;2022-09-29T02:26:32;10.10;99.90
21592;DHT22;10958;50.892;3.992;2022-09-29T02:29:02;10.20;99.90
21592;DHT22;10958;50.892;3.992;2022-09-29T02:31:30;10.10;99.90
21592;DHT22;10958;50.892;3.992;2022-09-29T02:33:56;9.80;99.90
21592;DHT22;10958;50.892;3.992;2022-09-29T02:36:57;9.50;99.90
21592;DHT22;10958;50.892;3.992;2022-09-29T02:50:43;9.80;99.90
21592;DHT22;10958;50.892;3.992;2022-09-29T02:58:46;9.40;99.90
21592;DHT22;10958;50.892;3.992;2022-09-29T03:01:14;9.60;99.90
21592;DHT22;10958;50.892;3.992;2022-09-29T03:03:41;9.80;99.90
21592;DHT22;10958;50.892;3.992;2022-09-29T03:06:08;9.80;99.90
21592;DHT22;10958;50.892;3.992;2022-09-29T03:08:33;9.10;99.90
21592;DHT22;10958;50.892;3.992;2022-09-29T03:10:59;8.80;99.90
21592;DHT22;10958;50.892;3.992;2022-09-29T03:13:25;8.90;99.90
21592;DHT22;10958;50.892;3.992;2022-09-29T03:15:51;9.10;99.90
21592;DHT22;10958;50.892;3.992;2022-09-29T03:18:17;9.30;99.90
21592;DHT22;10958;50.892;3.992;2022-09-29T03:20:42;9.30;99.90
21592;DHT22;10958;50.892;3.992;2022-09-29T03:23:08;9.30;99.90
21592;DHT22;10958;50.892;3.992;2022-09-29T03:25:34;9.10;99.90
21592;DHT22;10958;50.892;3.992;2022-09-29T03:28:00;9.10;99.90
21592;DHT22;10958;50.892;3.992;2022-09-29T03:30:25;8.80;99.90
21592;DHT22;10958;50.892;3.992;2022-09-29T03:32:51;8.70;99.90
21592;DHT22;10958;50.892;3.992;2022-09-29T03:35:18;8.80;99.90
21592;DHT22;10958;50.892;3.992;2022-09-29T03:37:46;8.70;99.90
21592;DHT22;10958;50.892;3.992;2022-09-29T03:40:14;8.60;99.90
21592;DHT22;10958;50.892;3.992;2022-09-29T03:42:40;8.80;99.90
21592;DHT22;10958;50.892;3.992;2022-09-29T03:45:06;9.00;99.90
21592;DHT22;10958;50.892;3.992;2022-09-29T03:47:32;8.80;99.90
21592;DHT22;10958;50.892;3.992;2022-09-29T03:49:58;8.50;99.90
21592;DHT22;10958;50.892;3.992;2022-09-29T03:52:24;8.40;99.90
21592;DHT22;10958;50.892;3.992;2022-09-29T03:54:50;8.40;99.90
21592;DHT22;10958;50.892;3.992;2022-09-29T03:57:16;8.70;99.90
21592;DHT22;10958;50.892;3.992;2022-09-29T03:59:41;9.00;99.90
21592;DHT22;10958;50.892;3.992;2022-09-29T04:02:07;8.90;99.90
21592;DHT22;10958;50.892;3.992;2022-09-29T04:04:32;8.60;99.90
21592;DHT22;10958;50.892;3.992;2022-09-29T04:06:59;8.70;99.90
21592;DHT22;10958;50.892;3.992;2022-09-29T04:09:25;8.80;99.90
21592;DHT22;10958;50.892;3.992;2022-09-29T04:11:51;8.90;99.90
21592;DHT22;10958;50.892;3.992;2022-09-29T04:14:17;9.00;99.90
21592;DHT22;10958;50.892;3.992;2022-09-29T04:16:45;8.80;99.90
21592;DHT22;10958;50.892;3.992;2022-09-29T04:19:11;8.50;99.90
21592;DHT22;10958;50.892;3.992;2022-09-29T04:21:36;8.60;99.90
21592;DHT22;10958;50.892;3.992;2022-09-29T04:24:02;8.60;99.90
21592;DHT22;10958;50.892;3.992;2022-09-29T04:26:31;8.80;99.90
21592;DHT22;10958;50.892;3.992;2022-09-29T04:28:57;9.00;99.90
21592;DHT22;10958;50.892;3.992;2022-09-29T04:31:25;9.00;99.90
21592;DHT22;10958;50.892;3.992;2022-09-29T04:33:51;9.00;99.90
21592;DHT22;10958;50.892;3.992;2022-09-29T04:36:16;9.10;99.90
21592;DHT22;10958;50.892;3.992;2022-09-29T04:38:42;9.20;99.90
21592;DHT22;10958;50.892;3.992;2022-09-29T04:41:08;9.20;99.90
21592;DHT22;10958;50.892;3.992;2022-09-29T04:43:36;9.20;99.90
21592;DHT22;10958;50.892;3.992;2022-09-29T04:46:03;9.20;99.90
21592;DHT22;10958;50.892;3.992;2022-09-29T04:48:32;9.10;99.90
21592;DHT22;10958;50.892;3.992;2022-09-29T04:50:58;9.10;99.90
21592;DHT22;10958;50.892;3.992;2022-09-29T04:53:24;9.10;99.90
21592;DHT22;10958;50.892;3.992;2022-09-29T04:55:50;9.10;99.90
21592;DHT22;10958;50.892;3.992;2022-09-29T04:58:15;9.00;99.90
21592;DHT22;10958;50.892;3.992;2022-09-29T05:00:41;8.70;99.90
21592;DHT22;10958;50.892;3.992;2022-09-29T05:03:07;8.30;99.90
21592;DHT22;10958;50.892;3.992;2022-09-29T05:05:34;8.40;99.90
21592;DHT22;10958;50.892;3.992;2022-09-29T05:08:02;8.50;99.90
21592;DHT22;10958;50.892;3.992;2022-09-29T05:10:29;8.60;99.90
21592;DHT22;10958;50.892;3.992;2022-09-29T05:12:54;8.50;99.90
21592;DHT22;10958;50.892;3.992;2022-09-29T05:15:20;8.00;99.90
21592;DHT22;10958;50.892;3.992;2022-09-29T05:17:47;8.20;99.90
21592;DHT22;10958;50.892;3.992;2022-09-29T05:20:12;8.40;99.90
21592;DHT22;10958;50.892;3.992;2022-09-29T05:22:41;8.60;99.90
21592;DHT22;10958;50.892;3.992;2022-09-29T05:25:08;8.60;99.90
21592;DHT22;10958;50.892;3.992;2022-09-29T05:27:35;8.60;99.90
21592;DHT22;10958;50.892;3.992;2022-09-29T05:30:01;8.50;99.90
21592;DHT22;10958;50.892;3.992;2022-09-29T05:32:27;8.30;99.90
21592;DHT22;10958;50.892;3.992;2022-09-29T05:34:53;8.30;99.90
21592;DHT22;10958;50.892;3.992;2022-09-29T05:37:19;8.20;99.90
21592;DHT22;10958;50.892;3.992;2022-09-29T05:39:47;8.00;99.90
21592;DHT22;10958;50.892;3.992;2022-09-29T05:42:17;7.90;99.90
21592;DHT22;10958;50.892;3.992;2022-09-29T05:44:44;7.70;99.90
21592;DHT22;10958;50.892;3.992;2022-09-29T05:47:10;7.80;99.90
21592;DHT22;10958;50.892;3.992;2022-09-29T05:49:36;8.10;99.90
21592;DHT22;10958;50.892;3.992;2022-09-29T05:52:01;8.20;99.90
21592;DHT22;10958;50.892;3.992;2022-09-29T05:54:27;8.20;99.90
21592;DHT22;10958;50.892;3.992;2022-09-29T05:56:53;8.30;99.90
21592;DHT22;10958;50.892;3.992;2022-09-29T05:59:20;8.30;99.90
21592;DHT22;10958;50.892;3.992;2022-09-29T06:01:46;8.20;99.90
21592;DHT22;10958;50.892;3.992;2022-09-29T06:04:15;8.30;99.90
21592;DHT22;10958;50.892;3.992;2022-09-29T06:06:42;8.30;99.90
21592;DHT22;10958;50.892;3.992;2022-09-29T06:09:07;8.40;99.90
21592;DHT22;10958;50.892;3.992;2022-09-29T06:11:33;8.40;99.90
21592;DHT22;10958;50.892;3.992;2022-09-29T06:14:02;8.40;99.90
21592;DHT22;10958;50.892;3.992;2022-09-29T06:16:30;8.30;99.90
21592;DHT22;10958;50.892;3.992;2022-09-29T06:18:58;8.30;99.90
21592;DHT22;10958;50.892;3.992;2022-09-29T06:21:26;8.20;99.90
21592;DHT22;10958;50.892;3.992;2022-09-29T06:23:54;8.20;99.90
21592;DHT22;10958;50.892;3.992;2022-09-29T06:26:21;8.10;99.90
21592;DHT22;10958;50.892;3.992;2022-09-29T06:28:47;8.30;99.90
21592;DHT22;10958;50.892;3.992;2022-09-29T06:31:15;8.10;99.90
21592;DHT22;10958;50.892;3.992;2022-09-29T06:33:44;8.20;99.90
21592;DHT22;10958;50.892;3.992;2022-09-29T06:39:01;8.40;99.90
21592;DHT22;10958;50.892;3.992;2022-09-29T06:41:27;8.80;99.90
21592;DHT22;10958;50.892;3.992;2022-09-29T06:43:54;9.60;99.90
21592;DHT22;10958;50.892;3.992;2022-09-29T06:46:21;10.30;99.90
21592;DHT22;10958;50.892;3.992;2022-09-29T06:48:47;10.60;99.90
21592;DHT22;10958;50.892;3.992;2022-09-29T06:51:13;10.80;99.90
21592;DHT22;10958;50.892;3.992;2022-09-29T06:53:39;10.90;99.90
21592;DHT22;10958;50.892;3.992;2022-09-29T06:56:06;11.10;99.90
21592;DHT22;10958;50.892;3.992;2022-09-29T06:58:33;11.30;99.90
21592;DHT22;10958;50.892;3.992;2022-09-29T07:01:02;11.60;99.90
21592;DHT22;10958;50.892;3.992;2022-09-29T07:03:30;11.80;99.90
21592;DHT22;10958;50.892;3.992;2022-09-29T07:06:00;11.70;99.90
21592;DHT22;10958;50.892;3.992;2022-09-29T07:08:26;11.50;99.90
21592;DHT22;10958;50.892;3.992;2022-09-29T07:10:53;11.50;99.90
21592;DHT22;10958;50.892;3.992;2022-09-29T07:13:21;11.70;99.90
21592;DHT22;10958;50.892;3.992;2022-09-29T07:15:47;11.90;99.90
21592;DHT22;10958;50.892;3.992;2022-09-29T07:18:13;11.90;99.90
21592;DHT22;10958;50.892;3.992;2022-09-29T07:20:39;11.90;99.90
21592;DHT22;10958;50.892;3.992;2022-09-29T07:23:07;12.40;99.90
21592;DHT22;10958;50.892;3.992;2022-09-29T07:25:36;13.10;99.90
21592;DHT22;10958;50.892;3.992;2022-09-29T07:28:06;13.50;99.90
21592;DHT22;10958;50.892;3.992;2022-09-29T07:31:12;13.50;99.90
21592;DHT22;10958;50.892;3.992;2022-09-29T07:33:38;13.90;99.90
21592;DHT22;10958;50.892;3.992;2022-09-29T07:36:08;14.20;99.90
21592;DHT22;10958;50.892;3.992;2022-09-29T07:38:36;14.00;99.90
21592;DHT22;10958;50.892;3.992;2022-09-29T07:41:08;14.20;99.90
21592;DHT22;10958;50.892;3.992;2022-09-29T07:43:36;14.30;99.90
21592;DHT22;10958;50.892;3.992;2022-09-29T07:46:02;14.40;99.90
21592;DHT22;10958;50.892;3.992;2022-09-29T07:48:29;14.60;99.90
21592;DHT22;10958;50.892;3.992;2022-09-29T07:51:04;14.50;99.90
21592;DHT22;10958;50.892;3.992;2022-09-29T07:53:31;14.80;99.90
21592;DHT22;10958;50.892;3.992;2022-09-29T07:56:02;15.30;99.90
21592;DHT22;10958;50.892;3.992;2022-09-29T07:58:33;15.80;99.90
21592;DHT22;10958;50.892;3.992;2022-09-29T08:01:00;16.20;99.90
21592;DHT22;10958;50.892;3.992;2022-09-29T08:03:28;16.70;99.90
21592;DHT22;10958;50.892;3.992;2022-09-29T08:05:55;17.10;99.90
21592;DHT22;10958;50.892;3.992;2022-09-29T08:08:22;17.50;99.90
21592;DHT22;10958;50.892;3.992;2022-09-29T08:10:48;18.00;99.90
21592;DHT22;10958;50.892;3.992;2022-09-29T08:13:13;18.40;99.90
21592;DHT22;10958;50.892;3.992;2022-09-29T08:15:39;18.50;99.90
21592;DHT22;10958;50.892;3.992;2022-09-29T08:18:05;18.90;99.90
21592;DHT22;10958;50.892;3.992;2022-09-29T08:20:33;19.20;99.90
21592;DHT22;10958;50.892;3.992;2022-09-29T08:23:04;19.40;99.90
21592;DHT22;10958;50.892;3.992;2022-09-29T08:25:33;19.90;99.90
21592;DHT22;10958;50.892;3.992;2022-09-29T08:28:03;20.10;99.90
21592;DHT22;10958;50.892;3.992;2022-09-29T08:30:29;20.40;99.90
21592;DHT22;10958;50.892;3.992;2022-09-29T08:32:55;20.30;99.90
21592;DHT22;10958;50.892;3.992;2022-09-29T08:35:53;20.40;99.90
21592;DHT22;10958;50.892;3.992;2022-09-29T08:39:16;20.10;99.90
21592;DHT22;10958;50.892;3.992;2022-09-29T08:45:28;20.10;99.90
21592;DHT22;10958;50.892;3.992;2022-09-29T08:51:25;20.50;99.90
21592;DHT22;10958;50.892;3.992;2022-09-29T08:57:30;20.50;99.90
21592;DHT22;10958;50.892;3.992;2022-09-29T09:19:00;21.60;99.90
21592;DHT22;10958;50.892;3.992;2022-09-29T09:21:46;21.70;99.90
21592;DHT22;10958;50.892;3.992;2022-09-29T09:24:21;21.80;99.90
21592;DHT22;10958;50.892;3.992;2022-09-29T09:26:53;21.50;99.90
21592;DHT22;10958;50.892;3.992;2022-09-29T09:32:03;19.90;99.90
21592;DHT22;10958;50.892;3.992;2022-09-29T09:34:38;20.40;99.90
21592;DHT22;10958;50.892;3.992;2022-09-29T09:37:15;20.80;99.90
21592;DHT22;10958;50.892;3.992;2022-09-29T09:39:48;20.40;99.90
21592;DHT22;10958;50.892;3.992;2022-09-29T09:42:39;20.40;99.90
21592;DHT22;10958;50.892;3.992;2022-09-29T09:45:11;18.90;99.90
21592;DHT22;10958;50.892;3.992;2022-09-29T09:47:47;19.10;99.90
21592;DHT22;10958;50.892;3.992;2022-09-29T09:50:16;18.60;99.90
21592;DHT22;10958;50.892;3.992;2022-09-29T09:55:18;19.50;99.90
21592;DHT22;10958;50.892;3.992;2022-09-29T09:58:30;18.90;99.90
21592;DHT22;10958;50.892;3.992;2022-09-29T10:03:35;19.40;99.90
21592;DHT22;10958;50.892;3.992;2022-09-29T10:06:01;19.40;99.90
21592;DHT22;10958;50.892;3.992;2022-09-29T10:08:30;19.50;99.90
21592;DHT22;10958;50.892;3.992;2022-09-29T10:11:03;20.10;99.90
21592;DHT22;10958;50.892;3.992;2022-09-29T10:13:30;20.60;99.90
21592;DHT22;10958;50.892;3.992;2022-09-29T10:16:16;20.80;99.90
21592;DHT22;10958;50.892;3.992;2022-09-29T10:18:46;20.70;99.90
21592;DHT22;10958;50.892;3.992;2022-09-29T10:23:54;18.80;99.90
21592;DHT22;10958;50.892;3.992;2022-09-29T10:26:24;19.10;99.90
21592;DHT22;10958;50.892;3.992;2022-09-29T10:28:51;18.10;99.90
21592;DHT22;10958;50.892;3.992;2022-09-29T10:31:28;18.00;99.90
21592;DHT22;10958;50.892;3.992;2022-09-29T10:33:59;17.40;99.90
21592;DHT22;10958;50.892;3.992;2022-09-29T10:36:46;17.70;99.90
21592;DHT22;10958;50.892;3.992;2022-09-29T10:40:00;18.10;99.90
21592;DHT22;10958;50.892;3.992;2022-09-29T10:42:38;17.90;99.90
21592;DHT22;10958;50.892;3.992;2022-09-29T10:47:46;17.90;99.90
21592;DHT22;10958;50.892;3.992;2022-09-29T10:50:14;18.20;99.90
21592;DHT22;10958;50.892;3.992;2022-09-29T10:52:43;18.30;99.90
21592;DHT22;10958;50.892;3.992;2022-09-29T10:55:18;18.60;99.90
21592;DHT22;10958;50.892;3.992;2022-09-29T10:57:47;18.60;99.90
21592;DHT22;10958;50.892;3.992;2022-09-29T11:03:22;18.20;99.90
21592;DHT22;10958;50.892;3.992;2022-09-29T11:05:58;17.60;99.90
21592;DHT22;10958;50.892;3.992;2022-09-29T11:08:27;16.90;99.90
21592;DHT22;10958;50.892;3.992;2022-09-29T11:11:06;17.20;99.90
21592;DHT22;10958;50.892;3.992;2022-09-29T11:13:40;17.10;99.90
21592;DHT22;10958;50.892;3.992;2022-09-29T11:19:08;17.00;99.90
21592;DHT22;10958;50.892;3.992;2022-09-29T11:26:55;17.50;99.90
21592;DHT22;10958;50.892;3.992;2022-09-29T11:29:35;17.40;99.90
21592;DHT22;10958;50.892;3.992;2022-09-29T11:37:44;17.30;99.90
21592;DHT22;10958;50.892;3.992;2022-09-29T11:43:45;17.40;99.90
21592;DHT22;10958;50.892;3.992;2022-09-29T11:46:34;17.30;99.90
21592;DHT22;10958;50.892;3.992;2022-09-29T11:57:35;17.30;99.90
21592;DHT22;10958;50.892;3.992;2022-09-29T12:03:20;17.10;99.90
21592;DHT22;10958;50.892;3.992;2022-09-29T12:06:08;17.30;99.90
21592;DHT22;10958;50.892;3.992;2022-09-29T12:15:17;17.30;99.90
21592;DHT22;10958;50.892;3.992;2022-09-29T12:17:47;17.00;99.90
21592;DHT22;10958;50.892;3.992;2022-09-29T12:22:49;16.60;99.90
21592;DHT22;10958;50.892;3.992;2022-09-29T12:25:18;16.90;99.90
21592;DHT22;10958;50.892;3.992;2022-09-29T12:27:48;16.60;99.90
21592;DHT22;10958;50.892;3.992;2022-09-29T12:30:28;16.50;99.90
21592;DHT22;10958;50.892;3.992;2022-09-29T12:35:46;16.20;99.90
21592;DHT22;10958;50.892;3.992;2022-09-29T12:38:21;15.90;99.90
21592;DHT22;10958;50.892;3.992;2022-09-29T12:41:10;15.50;99.90
21592;DHT22;10958;50.892;3.992;2022-09-29T12:46:37;15.20;99.90
21592;DHT22;10958;50.892;3.992;2022-09-29T12:49:22;15.40;99.90
21592;DHT22;10958;50.892;3.992;2022-09-29T12:51:52;15.70;99.90
21592;DHT22;10958;50.892;3.992;2022-09-29T12:57:15;15.90;99.90
21592;DHT22;10958;50.892;3.992;2022-09-29T12:59:57;16.10;99.90
21592;DHT22;10958;50.892;3.992;2022-09-29T13:08:18;16.30;99.90
21592;DHT22;10958;50.892;3.992;2022-09-29T13:16:50;17.10;99.90
21592;DHT22;10958;50.892;3.992;2022-09-29T13:19:35;17.40;99.90
21592;DHT22;10958;50.892;3.992;2022-09-29T13:27:42;17.30;99.90
21592;DHT22;10958;50.892;3.992;2022-09-29T13:30:26;17.00;99.90
21592;DHT22;10958;50.892;3.992;2022-09-29T13:33:24;16.80;99.90
21592;DHT22;10958;50.892;3.992;2022-09-29T13:35:50;17.10;99.90
21592;DHT22;10958;50.892;3.992;2022-09-29T13:38:29;16.90;99.90
21592;DHT22;10958;50.892;3.992;2022-09-29T13:41:13;16.90;99.90
21592;DHT22;10958;50.892;3.992;2022-09-29T13:51:46;15.80;99.90
21592;DHT22;10958;50.892;3.992;2022-09-29T13:59:45;15.00;99.90
21592;DHT22;10958;50.892;3.992;2022-09-29T14:05:34;14.80;99.90
21592;DHT22;10958;50.892;3.992;2022-09-29T14:13:25;14.60;99.90
21592;DHT22;10958;50.892;3.992;2022-09-29T14:21:55;14.30;99.90
21592;DHT22;10958;50.892;3.992;2022-09-29T14:37:39;15.00;99.90
21592;DHT22;10958;50.892;3.992;2022-09-29T14:40:07;15.00;99.90
21592;DHT22;10958;50.892;3.992;2022-09-29T14:43:02;15.10;99.90
21592;DHT22;10958;50.892;3.992;2022-09-29T14:45:37;15.20;99.90
21592;DHT22;10958;50.892;3.992;2022-09-29T14:48:34;15.30;99.90
21592;DHT22;10958;50.892;3.992;2022-09-29T14:51:32;15.40;99.90
21592;DHT22;10958;50.892;3.992;2022-09-29T15:00:14;15.40;99.90
21592;DHT22;10958;50.892;3.992;2022-09-29T15:02:50;15.50;99.90
21592;DHT22;10958;50.892;3.992;2022-09-29T15:05:27;15.70;99.90
21592;DHT22;10958;50.892;3.992;2022-09-29T15:07:53;15.80;99.90
21592;DHT22;10958;50.892;3.992;2022-09-29T15:10:39;15.80;99.90
21592;DHT22;10958;50.892;3.992;2022-09-29T15:13:27;16.00;99.90
21592;DHT22;10958;50.892;3.992;2022-09-29T15:16:20;16.10;99.90
21592;DHT22;10958;50.892;3.992;2022-09-29T15:21:31;15.80;99.90
21592;DHT22;10958;50.892;3.992;2022-09-29T15:26:40;15.70;99.90
21592;DHT22;10958;50.892;3.992;2022-09-29T15:29:09;15.70;99.90
21592;DHT22;10958;50.892;3.992;2022-09-29T15:31:38;15.60;99.90
21592;DHT22;10958;50.892;3.992;2022-09-29T15:34:14;15.40;99.90
21592;DHT22;10958;50.892;3.992;2022-09-29T15:36:50;15.20;99.90
21592;DHT22;10958;50.892;3.992;2022-09-29T15:42:20;15.10;99.90
21592;DHT22;10958;50.892;3.992;2022-09-29T15:44:59;15.10;99.90
21592;DHT22;10958;50.892;3.992;2022-09-29T15:47:28;15.30;99.90
21592;DHT22;10958;50.892;3.992;2022-09-29T15:50:03;15.30;99.90
21592;DHT22;10958;50.892;3.992;2022-09-29T15:52:30;15.10;99.90
21592;DHT22;10958;50.892;3.992;2022-09-29T15:54:57;14.90;99.90
21592;DHT22;10958;50.892;3.992;2022-09-29T15:57:46;14.70;99.90
21592;DHT22;10958;50.892;3.992;2022-09-29T16:05:32;14.40;99.90
21592;DHT22;10958;50.892;3.992;2022-09-29T16:08:03;14.30;99.90
21592;DHT22;10958;50.892;3.992;2022-09-29T16:10:31;14.20;99.90
21592;DHT22;10958;50.892;3.992;2022-09-29T16:13:04;14.20;99.90
21592;DHT22;10958;50.892;3.992;2022-09-29T16:15:43;14.30;99.90
21592;DHT22;10958;50.892;3.992;2022-09-29T16:18:25;14.50;99.90
21592;DHT22;10958;50.892;3.992;2022-09-29T16:20:53;14.80;99.90
21592;DHT22;10958;50.892;3.992;2022-09-29T16:28:32;14.60;99.90
21592;DHT22;10958;50.892;3.992;2022-09-29T16:31:04;14.90;99.90
21592;DHT22;10958;50.892;3.992;2022-09-29T16:33:33;14.90;99.90
21592;DHT22;10958;50.892;3.992;2022-09-29T16:36:18;15.20;99.90
21592;DHT22;10958;50.892;3.992;2022-09-29T16:38:47;15.30;99.90
21592;DHT22;10958;50.892;3.992;2022-09-29T16:41:25;15.40;99.90
21592;DHT22;10958;50.892;3.992;2022-09-29T16:47:20;15.50;99.90
21592;DHT22;10958;50.892;3.992;2022-09-29T16:49:33;15.60;99.90
21592;DHT22;10958;50.892;3.992;2022-09-29T16:52:18;15.50;99.90
21592;DHT22;10958;50.892;3.992;2022-09-29T16:54:49;15.20;99.90
21592;DHT22;10958;50.892;3.992;2022-09-29T16:57:30;15.20;99.90
21592;DHT22;10958;50.892;3.992;2022-09-29T17:00:05;15.30;99.90
21592;DHT22;10958;50.892;3.992;2022-09-29T17:02:57;15.30;99.90
21592;DHT22;10958;50.892;3.992;2022-09-29T17:05:51;15.30;99.90
21592;DHT22;10958;50.892;3.992;2022-09-29T17:08:24;15.10;99.90
21592;DHT22;10958;50.892;3.992;2022-09-29T17:10:52;14.90;99.90
21592;DHT22;10958;50.892;3.992;2022-09-29T17:13:21;15.00;99.90
21592;DHT22;10958;50.892;3.992;2022-09-29T17:15:50;14.70;99.90
21592;DHT22;10958;50.892;3.992;2022-09-29T17:18:18;14.20;99.90
21592;DHT22;10958;50.892;3.992;2022-09-29T17:20:44;14.20;99.90
21592;DHT22;10958;50.892;3.992;2022-09-29T17:23:10;14.20;99.90
21592;DHT22;10958;50.892;3.992;2022-09-29T17:25:42;14.00;99.90
21592;DHT22;10958;50.892;3.992;2022-09-29T17:28:18;14.00;99.90
21592;DHT22;10958;50.892;3.992;2022-09-29T17:30:48;14.20;99.90
21592;DHT22;10958;50.892;3.992;2022-09-29T17:33:16;14.30;99.90
21592;DHT22;10958;50.892;3.992;2022-09-29T17:35:47;14.30;99.90
21592;DHT22;10958;50.892;3.992;2022-09-29T17:38:14;14.40;99.90
21592;DHT22;10958;50.892;3.992;2022-09-29T17:41:00;14.40;99.90
21592;DHT22;10958;50.892;3.992;2022-09-29T17:43:27;14.40;99.90
21592;DHT22;10958;50.892;3.992;2022-09-29T17:45:55;14.30;99.90
21592;DHT22;10958;50.892;3.992;2022-09-29T17:48:26;14.30;99.90
21592;DHT22;10958;50.892;3.992;2022-09-29T17:50:53;14.20;99.90
21592;DHT22;10958;50.892;3.992;2022-09-29T17:53:23;14.00;99.90
21592;DHT22;10958;50.892;3.992;2022-09-29T17:55:52;13.90;99.90
21592;DHT22;10958;50.892;3.992;2022-09-29T17:58:20;13.70;99.90
21592;DHT22;10958;50.892;3.992;2022-09-29T18:00:49;13.50;99.90
21592;DHT22;10958;50.892;3.992;2022-09-29T18:03:17;13.40;99.90
21592;DHT22;10958;50.892;3.992;2022-09-29T18:05:45;13.30;99.90
21592;DHT22;10958;50.892;3.992;2022-09-29T18:08:21;13.40;99.90
21592;DHT22;10958;50.892;3.992;2022-09-29T18:10:58;13.50;99.90
21592;DHT22;10958;50.892;3.992;2022-09-29T18:13:30;13.60;99.90
21592;DHT22;10958;50.892;3.992;2022-09-29T18:15:59;13.50;99.90
21592;DHT22;10958;50.892;3.992;2022-09-29T18:18:26;13.40;99.90
21592;DHT22;10958;50.892;3.992;2022-09-29T18:20:55;13.30;99.90
21592;DHT22;10958;50.892;3.992;2022-09-29T18:23:22;13.40;99.90
21592;DHT22;10958;50.892;3.992;2022-09-29T18:25:49;13.40;99.90
21592;DHT22;10958;50.892;3.992;2022-09-29T18:28:18;13.50;99.90
21592;DHT22;10958;50.892;3.992;2022-09-29T18:30:55;13.40;99.90
21592;DHT22;10958;50.892;3.992;2022-09-29T18:33:25;13.10;99.90
21592;DHT22;10958;50.892;3.992;2022-09-29T18:35:53;13.10;99.90
21592;DHT22;10958;50.892;3.992;2022-09-29T18:38:22;13.10;99.90
21592;DHT22;10958;50.892;3.992;2022-09-29T18:40:54;13.10;99.90
21592;DHT22;10958;50.892;3.992;2022-09-29T18:43:21;12.90;99.90
21592;DHT22;10958;50.892;3.992;2022-09-29T18:45:58;12.60;99.90
21592;DHT22;10958;50.892;3.992;2022-09-29T18:48:27;12.30;99.90
21592;DHT22;10958;50.892;3.992;2022-09-29T18:50:53;12.00;99.90
21592;DHT22;10958;50.892;3.992;2022-09-29T18:53:22;12.00;99.90
21592;DHT22;10958;50.892;3.992;2022-09-29T18:55:48;11.80;99.90
21592;DHT22;10958;50.892;3.992;2022-09-29T18:58:21;11.90;99.90
21592;DHT22;10958;50.892;3.992;2022-09-29T19:00:49;12.20;99.90
21592;DHT22;10958;50.892;3.992;2022-09-29T19:03:23;12.50;99.90
21592;DHT22;10958;50.892;3.992;2022-09-29T19:05:49;12.60;99.90
21592;DHT22;10958;50.892;3.992;2022-09-29T19:08:16;12.70;99.90
21592;DHT22;10958;50.892;3.992;2022-09-29T19:10:48;12.90;99.90
21592;DHT22;10958;50.892;3.992;2022-09-29T19:13:15;12.90;99.90
21592;DHT22;10958;50.892;3.992;2022-09-29T19:15:42;12.70;99.90
21592;DHT22;10958;50.892;3.992;2022-09-29T19:18:17;12.70;99.90
21592;DHT22;10958;50.892;3.992;2022-09-29T19:20:51;12.70;99.90
21592;DHT22;10958;50.892;3.992;2022-09-29T19:23:18;12.70;99.90
21592;DHT22;10958;50.892;3.992;2022-09-29T19:25:45;12.70;99.90
21592;DHT22;10958;50.892;3.992;2022-09-29T19:28:11;12.70;99.90
21592;DHT22;10958;50.892;3.992;2022-09-29T19:30:46;12.80;99.90
21592;DHT22;10958;50.892;3.992;2022-09-29T19:33:13;12.80;99.90
21592;DHT22;10958;50.892;3.992;2022-09-29T19:35:47;12.50;99.90
21592;DHT22;10958;50.892;3.992;2022-09-29T19:38:17;12.40;99.90
21592;DHT22;10958;50.892;3.992;2022-09-29T19:40:44;12.20;99.90
21592;DHT22;10958;50.892;3.992;2022-09-29T19:43:20;12.10;99.90